Time;durP1;ratioP1;P1;durP2;ratioP2;P2;SDS_P1;SDS_P2;PMS_P1;PMS_P2;Temp;Humidity;BMP_temperature;BMP_pressure;BME280_temperature;BME280_humidity;BME280_pressure;Samples;Min_cycle;Max_cycle;Signal;HPM_P1;HPM_P2
2022/01/10 00:00:35;;;;;;;18.17;8.88;;;2.60;99.90;;;;;;5130971;27;20058;-65
2022/01/10 00:03:01;;;;;;;17.50;8.63;;;2.70;99.90;;;;;;5156028;27;20051;-66
2022/01/10 00:05:27;;;;;;;22.35;8.95;;;2.70;99.90;;;;;;5137656;27;20047;-65
2022/01/10 00:07:52;;;;;;;18.75;8.55;;;2.90;99.90;;;;;;5155961;27;20067;-65
2022/01/10 00:10:19;;;;;;;17.48;9.05;;;2.60;99.90;;;;;;5143036;27;20031;-65
2022/01/10 00:12:46;;;;;;;21.52;9.23;;;2.60;99.90;;;;;;5134950;27;20043;-64
2022/01/10 00:15:15;;;;;;;20.00;9.35;;;2.60;99.90;;;;;;5134354;27;20057;-66
2022/01/10 00:17:45;;;;;;;17.50;9.55;;;2.60;99.90;;;;;;5134693;27;20039;-64
2022/01/10 00:20:13;;;;;;;16.58;8.93;;;2.60;99.90;;;;;;5145588;27;20118;-65
2022/01/10 00:22:45;;;;;;;20.67;9.80;;;2.50;99.90;;;;;;5155371;27;20606;-65
2022/01/10 00:25:13;;;;;;;21.33;10.55;;;2.40;99.90;;;;;;5154872;27;20466;-65
2022/01/10 00:27:39;;;;;;;21.45;8.85;;;2.40;99.90;;;;;;5155645;27;20057;-66
2022/01/10 00:30:05;;;;;;;21.85;10.10;;;2.30;99.90;;;;;;5127181;27;20439;-66
2022/01/10 00:32:31;;;;;;;24.08;9.80;;;2.40;99.90;;;;;;5134309;27;20043;-66
2022/01/10 00:34:57;;;;;;;18.83;9.30;;;2.30;99.90;;;;;;5134385;27;20050;-65
2022/01/10 00:37:25;;;;;;;21.25;9.70;;;2.30;99.90;;;;;;5134508;27;20107;-65
2022/01/10 00:39:51;;;;;;;25.85;10.77;;;2.30;99.90;;;;;;5106779;27;20095;-66
2022/01/10 00:42:17;;;;;;;26.38;10.93;;;2.30;99.90;;;;;;5155433;27;20047;-65
2022/01/10 00:44:51;;;;;;;23.10;10.88;;;2.20;99.90;;;;;;5154520;27;20057;-66
2022/01/10 00:47:17;;;;;;;23.95;11.25;;;2.10;99.90;;;;;;5154767;27;20039;-66
2022/01/10 00:49:44;;;;;;;24.08;10.48;;;2.10;99.90;;;;;;5147925;27;20026;-66
2022/01/10 00:52:10;;;;;;;23.52;11.85;;;2.10;99.90;;;;;;5134370;27;20035;-66
2022/01/10 00:54:36;;;;;;;25.83;11.48;;;2.10;99.90;;;;;;5133942;27;20508;-65
2022/01/10 00:57:03;;;;;;;23.52;11.45;;;2.10;99.90;;;;;;5134353;27;20047;-66
2022/01/10 00:59:29;;;;;;;20.80;9.90;;;2.10;99.90;;;;;;5120184;27;20038;-66
2022/01/10 01:01:55;;;;;;;23.05;10.60;;;2.10;99.90;;;;;;5154845;27;20035;-65
2022/01/10 01:04:21;;;;;;;26.65;10.80;;;2.10;99.90;;;;;;5154456;27;20057;-66
2022/01/10 01:06:48;;;;;;;22.92;10.85;;;2.10;99.90;;;;;;5154934;27;20451;-65
2022/01/10 01:09:16;;;;;;;22.20;10.18;;;2.10;99.90;;;;;;5152472;27;20121;-65
2022/01/10 01:17:59;;;;;;;23.58;10.95;;;2.10;99.90;;;;;;5115812;28;20054;-65
2022/01/10 01:25:08;;;;;;;28.02;10.93;;;2.00;99.90;;;;;;5158872;27;20038;-65
2022/01/10 01:27:34;;;;;;;23.33;11.50;;;1.90;99.90;;;;;;5159128;27;20070;-65
2022/01/10 01:30:00;;;;;;;25.63;10.88;;;1.90;99.90;;;;;;5150084;27;20713;-65
2022/01/10 01:32:28;;;;;;;25.20;11.95;;;1.90;99.90;;;;;;5138118;27;20032;-65
2022/01/10 01:35:01;;;;;;;22.58;11.25;;;1.80;99.90;;;;;;5137916;27;20058;-65
2022/01/10 01:37:27;;;;;;;24.42;12.85;;;1.80;99.90;;;;;;5119811;27;20047;-65
2022/01/10 01:39:53;;;;;;;27.27;12.23;;;1.80;99.90;;;;;;5145519;27;20034;-65
2022/01/10 01:42:33;;;;;;;26.20;10.90;;;1.80;99.90;;;;;;5158357;27;20375;-65
2022/01/10 01:45:00;;;;;;;28.10;12.05;;;1.80;99.90;;;;;;5158371;27;20050;-64
2022/01/10 01:47:26;;;;;;;21.27;10.80;;;1.80;99.90;;;;;;5158687;27;20034;-64
2022/01/10 01:49:52;;;;;;;24.52;11.80;;;1.80;99.90;;;;;;5150775;27;20412;-65
2022/01/10 01:52:18;;;;;;;28.85;12.23;;;1.80;99.90;;;;;;5137672;27;20421;-65
2022/01/10 01:54:44;;;;;;;25.77;12.18;;;1.70;99.90;;;;;;5137515;27;20035;-65
2022/01/10 01:57:10;;;;;;;25.17;11.65;;;1.70;99.90;;;;;;5137920;27;20043;-65
2022/01/10 01:59:37;;;;;;;24.65;11.90;;;1.70;99.90;;;;;;5142586;27;20031;-66
2022/01/10 02:02:03;;;;;;;27.85;11.23;;;1.60;99.90;;;;;;5122786;27;20368;-66
2022/01/10 02:04:29;;;;;;;26.92;11.75;;;1.60;99.90;;;;;;5139311;27;20034;-65
2022/01/10 02:06:55;;;;;;;22.75;10.82;;;1.60;99.90;;;;;;5158252;27;20117;-65
2022/01/10 02:09:20;;;;;;;21.63;11.00;;;1.60;99.90;;;;;;5136591;27;20038;-65
2022/01/10 02:11:46;;;;;;;22.65;10.82;;;1.60;99.90;;;;;;5119431;27;20054;-65
2022/01/10 02:14:14;;;;;;;28.98;12.40;;;1.50;99.90;;;;;;5136870;27;20409;-64
2022/01/10 02:16:43;;;;;;;26.52;12.02;;;1.60;99.90;;;;;;5136090;28;20030;-65
2022/01/10 02:19:10;;;;;;;26.52;12.25;;;1.50;99.90;;;;;;5136753;27;20455;-65
2022/01/10 02:21:36;;;;;;;22.23;11.50;;;1.50;99.90;;;;;;5156502;27;20323;-65
2022/01/10 02:24:03;;;;;;;23.55;12.15;;;1.50;99.90;;;;;;5156388;27;20035;-66
2022/01/10 02:26:29;;;;;;;24.30;12.18;;;1.50;99.90;;;;;;5156762;27;20109;-65
2022/01/10 02:28:55;;;;;;;22.85;11.93;;;1.40;99.90;;;;;;5138124;27;20481;-65
2022/01/10 02:31:21;;;;;;;24.17;12.82;;;1.40;99.90;;;;;;5136204;27;20113;-65
2022/01/10 02:33:48;;;;;;;21.58;12.18;;;1.40;99.90;;;;;;5135086;27;20070;-65
2022/01/10 02:36:22;;;;;;;28.30;12.90;;;1.40;99.90;;;;;;5117524;28;20376;-65
2022/01/10 02:38:50;;;;;;;25.00;12.55;;;1.50;99.90;;;;;;5117686;28;20050;-64
2022/01/10 02:41:20;;;;;;;23.83;11.85;;;1.50;99.90;;;;;;5154223;27;20446;-64
2022/01/10 02:43:46;;;;;;;24.92;12.65;;;1.50;99.90;;;;;;5137611;27;20043;-65
2022/01/10 02:46:12;;;;;;;25.50;12.20;;;1.50;99.90;;;;;;5156266;27;20354;-64
2022/01/10 02:48:37;;;;;;;23.88;12.23;;;1.50;99.90;;;;;;5120993;27;20043;-64
2022/01/10 02:51:03;;;;;;;25.80;11.82;;;1.60;99.90;;;;;;5138874;27;20035;-65
2022/01/10 02:53:28;;;;;;;22.95;12.68;;;1.60;99.90;;;;;;5135208;28;20039;-66
2022/01/10 02:55:54;;;;;;;26.63;13.32;;;1.60;99.90;;;;;;5135638;27;20039;-65
2022/01/10 02:58:20;;;;;;;26.02;13.30;;;1.60;99.90;;;;;;5135447;28;20050;-65
2022/01/10 03:00:45;;;;;;;25.73;12.75;;;1.60;99.90;;;;;;5149224;27;20043;-66
2022/01/10 03:03:11;;;;;;;28.00;13.15;;;1.60;99.90;;;;;;5155569;27;20045;-64
2022/01/10 03:05:37;;;;;;;28.75;12.57;;;1.60;99.90;;;;;;5156212;27;20171;-65
2022/01/10 03:08:05;;;;;;;37.00;13.07;;;1.50;99.90;;;;;;5137834;27;20172;-65
2022/01/10 03:10:31;;;;;;;25.52;12.40;;;1.60;99.90;;;;;;5124762;28;20148;-64
2022/01/10 03:13:01;;;;;;;22.45;12.48;;;1.60;99.90;;;;;;5134878;28;20119;-65
2022/01/10 03:15:29;;;;;;;24.25;12.23;;;1.60;99.90;;;;;;5077907;27;1117279;-65
2022/01/10 03:17:55;;;;;;;26.55;13.00;;;1.50;99.90;;;;;;5135916;27;20047;-65
2022/01/10 03:20:23;;;;;;;25.25;12.32;;;1.50;99.90;;;;;;5146564;27;20049;-65
2022/01/10 03:22:49;;;;;;;28.23;12.88;;;1.50;99.90;;;;;;5138474;27;20055;-65
2022/01/10 03:25:15;;;;;;;25.77;12.75;;;1.50;99.90;;;;;;5138100;27;20046;-66
2022/01/10 03:27:41;;;;;;;23.55;11.45;;;1.50;99.90;;;;;;5156371;27;20034;-65
2022/01/10 03:30:07;;;;;;;23.05;11.80;;;1.50;99.90;;;;;;5148021;27;20039;-66
2022/01/10 03:32:33;;;;;;;19.30;11.82;;;1.50;99.90;;;;;;5135776;27;20436;-65
2022/01/10 03:34:58;;;;;;;25.00;12.38;;;1.50;99.90;;;;;;5135573;27;20310;-66
2022/01/10 03:37:25;;;;;;;26.70;12.05;;;1.40;99.90;;;;;;5135860;27;20372;-66
2022/01/10 03:39:51;;;;;;;23.35;11.32;;;1.40;99.90;;;;;;5123658;27;20064;-65
2022/01/10 03:42:17;;;;;;;22.50;11.57;;;1.40;99.90;;;;;;5156469;27;20050;-63
2022/01/10 03:44:42;;;;;;;27.50;13.50;;;1.40;99.90;;;;;;5155110;27;20118;-65
2022/01/10 03:47:09;;;;;;;24.23;11.75;;;1.40;99.90;;;;;;5156093;27;20042;-65
2022/01/10 03:49:36;;;;;;;22.52;12.65;;;1.40;99.90;;;;;;5151787;27;20075;-64
2022/01/10 03:52:01;;;;;;;27.48;12.70;;;1.40;99.90;;;;;;5117222;27;20062;-65
2022/01/10 03:54:27;;;;;;;24.40;12.55;;;1.50;99.90;;;;;;5116584;27;20057;-65
2022/01/10 03:56:53;;;;;;;28.58;12.23;;;1.50;99.90;;;;;;5116863;27;20042;-64
2022/01/10 03:59:18;;;;;;;24.23;11.27;;;1.50;99.90;;;;;;5136232;27;20053;-66
2022/01/10 04:01:44;;;;;;;25.17;12.18;;;1.50;99.90;;;;;;5137366;27;20039;-64
2022/01/10 04:04:10;;;;;;;22.17;11.35;;;1.50;99.90;;;;;;5137568;27;20042;-64
2022/01/10 04:06:35;;;;;;;27.50;12.93;;;1.40;99.90;;;;;;5137780;27;20516;-65
2022/01/10 04:09:01;;;;;;;25.77;12.65;;;1.40;99.90;;;;;;5137851;27;20414;-66
2022/01/10 04:11:27;;;;;;;22.27;11.93;;;1.40;99.90;;;;;;5135828;27;20355;-66
2022/01/10 04:13:52;;;;;;;26.17;11.95;;;1.40;99.90;;;;;;5116215;27;20074;-66
2022/01/10 04:16:18;;;;;;;24.15;13.40;;;1.30;99.90;;;;;;5134494;27;20062;-65
2022/01/10 04:18:44;;;;;;;25.65;12.25;;;1.40;99.90;;;;;;5135017;27;20417;-66
2022/01/10 04:21:10;;;;;;;27.20;12.85;;;1.40;99.90;;;;;;5151709;27;20086;-64
2022/01/10 04:23:35;;;;;;;28.67;12.10;;;1.40;99.90;;;;;;5155338;27;20043;-65
2022/01/10 04:26:01;;;;;;;21.35;11.75;;;1.30;99.90;;;;;;5155598;27;20450;-65
2022/01/10 04:28:27;;;;;;;27.35;12.15;;;1.40;99.90;;;;;;5155546;27;20038;-65
2022/01/10 04:30:52;;;;;;;24.35;11.93;;;1.30;99.90;;;;;;5140301;27;20114;-66
2022/01/10 04:33:19;;;;;;;26.52;11.73;;;1.30;99.90;;;;;;5134044;27;20450;-65
2022/01/10 04:35:46;;;;;;;23.17;12.30;;;1.30;99.90;;;;;;5134792;27;20131;-66
2022/01/10 04:38:12;;;;;;;22.27;11.15;;;1.30;99.90;;;;;;5134580;27;20046;-64
2022/01/10 04:40:38;;;;;;;23.70;12.50;;;1.30;99.90;;;;;;5128777;27;20038;-65
2022/01/10 04:43:04;;;;;;;24.85;12.60;;;1.30;99.90;;;;;;5154831;27;20078;-66
2022/01/10 04:45:30;;;;;;;22.70;12.07;;;1.40;99.90;;;;;;5136906;27;20046;-65
2022/01/10 04:47:55;;;;;;;26.95;11.85;;;1.30;99.90;;;;;;5136777;27;20035;-65
2022/01/10 04:52:48;;;;;;;33.38;12.57;;;1.30;99.90;;;;;;5134048;27;20126;-65
2022/01/10 04:55:14;;;;;;;25.50;12.60;;;1.30;99.90;;;;;;5134415;27;20054;-65
2022/01/10 04:57:40;;;;;;;25.05;11.98;;;1.30;99.90;;;;;;5134634;27;20412;-65
2022/01/10 05:00:09;;;;;;;24.50;12.38;;;1.30;99.90;;;;;;5142214;27;20046;-65
2022/01/10 05:02:34;;;;;;;25.23;12.60;;;1.30;99.90;;;;;;5136473;27;20081;-65
2022/01/10 05:05:00;;;;;;;22.85;12.77;;;1.40;99.90;;;;;;5154969;27;20491;-65
2022/01/10 05:07:26;;;;;;;22.15;12.55;;;1.30;99.90;;;;;;5154783;27;20066;-64
2022/01/10 05:09:51;;;;;;;29.90;13.48;;;1.30;99.90;;;;;;5148624;27;20437;-65
2022/01/10 05:12:17;;;;;;;23.90;12.52;;;1.20;99.90;;;;;;5134322;28;20035;-65
2022/01/10 05:14:43;;;;;;;21.55;12.68;;;1.20;99.90;;;;;;5133476;27;20070;-66
2022/01/10 05:17:12;;;;;;;22.83;12.02;;;1.20;99.90;;;;;;5133585;28;20090;-65
2022/01/10 05:19:37;;;;;;;26.95;12.48;;;1.20;99.90;;;;;;5137797;27;20070;-65
2022/01/10 05:22:03;;;;;;;25.30;12.88;;;1.20;99.90;;;;;;5154625;27;20458;-66
2022/01/10 05:24:29;;;;;;;25.98;12.35;;;1.10;99.90;;;;;;5154345;27;20087;-66
2022/01/10 05:26:55;;;;;;;23.95;12.02;;;1.10;99.90;;;;;;5154797;27;20038;-65
2022/01/10 05:29:20;;;;;;;22.35;12.00;;;1.10;99.90;;;;;;5134852;27;20039;-66
2022/01/10 05:31:46;;;;;;;23.42;12.45;;;1.10;99.90;;;;;;5133821;27;20035;-66
2022/01/10 05:34:12;;;;;;;25.05;12.25;;;1.10;99.90;;;;;;5133284;28;20043;-66
2022/01/10 05:36:37;;;;;;;24.30;13.25;;;1.10;99.90;;;;;;5134064;27;20039;-66
2022/01/10 05:39:03;;;;;;;24.23;11.93;;;1.10;99.90;;;;;;5115393;28;20091;-66
2022/01/10 05:41:29;;;;;;;22.27;12.40;;;1.10;99.90;;;;;;5117498;27;20126;-65
2022/01/10 05:43:55;;;;;;;22.70;12.18;;;1.10;99.90;;;;;;5154180;27;20039;-65
2022/01/10 05:46:22;;;;;;;22.90;11.68;;;1.00;99.90;;;;;;5154494;27;20089;-65
2022/01/10 05:48:52;;;;;;;24.02;11.88;;;0.90;99.90;;;;;;5154499;27;20046;-65
2022/01/10 05:51:19;;;;;;;25.25;12.32;;;0.90;99.90;;;;;;5147309;27;20084;-65
2022/01/10 05:53:46;;;;;;;21.63;12.32;;;0.90;99.90;;;;;;5136034;27;20363;-65
2022/01/10 05:56:12;;;;;;;30.58;12.05;;;0.90;99.90;;;;;;5111403;27;20038;-65
2022/01/10 05:58:37;;;;;;;22.95;12.82;;;0.90;99.90;;;;;;5138755;27;20329;-65
2022/01/10 06:01:04;;;;;;;27.75;12.70;;;0.90;99.90;;;;;;5085157;27;20051;-65
2022/01/10 06:03:29;;;;;;;25.90;12.90;;;0.80;99.90;;;;;;5132670;27;20047;-65
2022/01/10 06:05:55;;;;;;;26.67;12.57;;;0.80;99.90;;;;;;5116668;27;20087;-65
2022/01/10 06:08:21;;;;;;;26.52;13.60;;;0.80;99.90;;;;;;5138468;27;20030;-65
2022/01/10 06:10:46;;;;;;;27.50;13.25;;;0.80;99.90;;;;;;5124084;27;20360;-66
2022/01/10 06:13:12;;;;;;;30.15;13.48;;;0.80;99.90;;;;;;5156281;27;20077;-64
2022/01/10 06:15:38;;;;;;;24.75;14.25;;;0.90;99.90;;;;;;5157245;27;20073;-65
2022/01/10 06:18:04;;;;;;;24.25;12.77;;;0.80;99.90;;;;;;5158160;27;20104;-65
2022/01/10 06:20:30;;;;;;;22.15;12.52;;;0.80;99.90;;;;;;5156471;27;20495;-66
2022/01/10 06:22:55;;;;;;;23.60;11.98;;;0.80;99.90;;;;;;5140796;27;20024;-64
2022/01/10 06:25:25;;;;;;;24.95;12.45;;;1.00;99.90;;;;;;5147720;27;20494;-65
2022/01/10 06:27:51;;;;;;;25.35;11.82;;;0.80;99.90;;;;;;5157608;27;20451;-65
2022/01/10 06:30:17;;;;;;;19.55;11.30;;;0.80;99.90;;;;;;5157034;27;20041;-65
2022/01/10 06:32:43;;;;;;;17.42;11.48;;;0.80;99.90;;;;;;5157258;27;20045;-64
2022/01/10 06:35:09;;;;;;;23.83;11.18;;;0.80;99.90;;;;;;5139765;27;20066;-65
2022/01/10 06:37:35;;;;;;;23.00;12.27;;;0.80;99.90;;;;;;5137411;27;20042;-64
2022/01/10 06:40:01;;;;;;;18.63;11.05;;;0.80;99.90;;;;;;5140193;27;20058;-66
2022/01/10 06:42:26;;;;;;;21.40;11.88;;;0.80;99.90;;;;;;5149338;27;20058;-65
2022/01/10 06:44:52;;;;;;;19.60;11.82;;;0.80;99.90;;;;;;5137202;27;20024;-64
2022/01/10 06:47:18;;;;;;;21.27;12.65;;;0.90;99.90;;;;;;5127272;27;20462;-66
2022/01/10 06:49:44;;;;;;;19.73;12.90;;;0.90;99.90;;;;;;5153231;27;20035;-65
2022/01/10 06:52:09;;;;;;;22.52;13.02;;;0.90;99.90;;;;;;5157613;27;20034;-65
2022/01/10 06:54:35;;;;;;;19.05;12.18;;;0.90;99.90;;;;;;5138809;27;20123;-65
2022/01/10 06:57:02;;;;;;;26.10;12.77;;;1.00;99.90;;;;;;5157226;27;20126;-65
2022/01/10 06:59:28;;;;;;;26.13;13.98;;;1.00;99.90;;;;;;5155087;27;20060;-65
2022/01/10 07:01:57;;;;;;;26.48;13.40;;;1.00;99.90;;;;;;5136615;27;20117;-65
2022/01/10 07:04:23;;;;;;;22.73;13.13;;;1.00;99.90;;;;;;5117631;27;20039;-64
2022/01/10 07:06:49;;;;;;;22.40;13.50;;;1.00;99.90;;;;;;5146444;27;20046;-65
2022/01/10 07:09:16;;;;;;;25.10;14.90;;;1.00;99.90;;;;;;5137433;27;20039;-66
2022/01/10 07:11:42;;;;;;;24.27;13.68;;;1.00;99.90;;;;;;5142860;27;20035;-65
2022/01/10 07:14:07;;;;;;;24.35;13.32;;;1.00;99.90;;;;;;5137832;27;20103;-66
2022/01/10 07:16:34;;;;;;;28.77;15.23;;;1.00;99.90;;;;;;5137138;27;21190;-67
2022/01/10 07:19:01;;;;;;;24.52;13.90;;;1.10;99.90;;;;;;5137253;27;20527;-67
2022/01/10 07:21:26;;;;;;;22.98;13.27;;;1.00;99.90;;;;;;5136706;27;20039;-67
2022/01/10 07:23:53;;;;;;;24.67;13.60;;;1.00;99.90;;;;;;5134286;27;20436;-66
2022/01/10 07:26:18;;;;;;;22.08;12.90;;;1.00;99.90;;;;;;5138610;27;20113;-67
2022/01/10 07:28:44;;;;;;;24.52;13.55;;;1.00;99.90;;;;;;5155890;27;20604;-66
2022/01/10 07:31:10;;;;;;;23.98;12.88;;;1.00;99.90;;;;;;5154892;27;20042;-65
2022/01/10 07:33:37;;;;;;;21.70;13.38;;;1.00;99.90;;;;;;5153296;27;20114;-65
2022/01/10 07:36:03;;;;;;;19.50;12.68;;;0.90;99.90;;;;;;5135478;27;20432;-66
2022/01/10 07:38:35;;;;;;;22.20;12.35;;;0.90;99.90;;;;;;5135099;27;20471;-65
2022/01/10 07:41:02;;;;;;;19.67;13.82;;;0.90;99.90;;;;;;5149625;27;20122;-66
2022/01/10 07:43:28;;;;;;;19.27;13.15;;;0.90;99.90;;;;;;5156351;27;20047;-67
2022/01/10 07:45:54;;;;;;;19.23;13.00;;;0.90;99.90;;;;;;5156128;27;20030;-65
2022/01/10 07:48:20;;;;;;;21.27;12.65;;;0.90;99.90;;;;;;5155838;27;20113;-66
2022/01/10 07:50:46;;;;;;;19.98;14.70;;;0.90;99.90;;;;;;5147618;27;20090;-65
2022/01/10 07:53:12;;;;;;;17.83;12.98;;;0.90;99.90;;;;;;5155462;27;20031;-64
2022/01/10 07:55:37;;;;;;;23.20;13.77;;;0.90;99.90;;;;;;5156201;27;20039;-65
2022/01/10 07:58:03;;;;;;;22.75;13.60;;;0.90;99.90;;;;;;5155471;27;20508;-66
2022/01/10 08:00:29;;;;;;;22.13;13.35;;;0.90;99.90;;;;;;5146011;27;20066;-67
2022/01/10 08:02:54;;;;;;;20.05;13.30;;;1.00;99.90;;;;;;5116148;27;20122;-64
2022/01/10 08:05:20;;;;;;;26.20;14.63;;;1.00;99.90;;;;;;5135058;27;20088;-63
2022/01/10 08:07:46;;;;;;;19.30;13.38;;;1.00;99.90;;;;;;5133391;27;20043;-65
2022/01/10 08:10:12;;;;;;;21.70;14.15;;;1.00;99.90;;;;;;5123426;27;20351;-65
2022/01/10 08:12:37;;;;;;;24.33;14.40;;;1.00;99.90;;;;;;5155671;27;20089;-65
2022/01/10 08:15:04;;;;;;;20.42;12.23;;;1.00;99.90;;;;;;5155289;27;20073;-64
2022/01/10 08:17:31;;;;;;;23.65;14.20;;;1.00;99.90;;;;;;5155261;27;20114;-66
2022/01/10 08:19:57;;;;;;;22.90;14.10;;;1.00;99.90;;;;;;5150466;27;20047;-64
2022/01/10 08:22:22;;;;;;;27.10;16.13;;;1.00;99.90;;;;;;5116595;27;20054;-66
2022/01/10 08:24:49;;;;;;;22.98;15.23;;;1.00;99.90;;;;;;5137837;27;20062;-64
2022/01/10 08:27:15;;;;;;;25.40;15.35;;;0.90;99.90;;;;;;5155025;27;20039;-66
2022/01/10 08:29:42;;;;;;;20.83;15.68;;;1.00;99.90;;;;;;5133673;27;20035;-65
2022/01/10 08:32:08;;;;;;;22.63;14.48;;;1.00;99.90;;;;;;5116428;27;20103;-64
2022/01/10 08:34:34;;;;;;;25.58;16.20;;;1.00;99.90;;;;;;5116263;27;20039;-64
2022/01/10 08:36:59;;;;;;;21.10;14.73;;;1.00;99.90;;;;;;5134274;27;20053;-65
2022/01/10 08:39:25;;;;;;;22.27;14.73;;;1.00;99.90;;;;;;5134738;27;20042;-64
2022/01/10 08:41:51;;;;;;;24.05;15.82;;;1.00;99.90;;;;;;5155153;27;20174;-65
2022/01/10 08:44:17;;;;;;;29.10;16.17;;;1.10;99.90;;;;;;5154937;27;20046;-64
2022/01/10 08:46:44;;;;;;;25.60;15.73;;;1.10;99.90;;;;;;5155024;27;20031;-65
2022/01/10 08:49:12;;;;;;;27.70;16.90;;;1.20;99.90;;;;;;5154656;27;20046;-65
2022/01/10 08:51:39;;;;;;;21.77;15.45;;;1.20;99.90;;;;;;5135863;27;20066;-65
2022/01/10 08:54:05;;;;;;;25.42;15.88;;;1.30;99.90;;;;;;5145157;27;20038;-65
2022/01/10 08:56:32;;;;;;;26.52;18.13;;;1.30;99.90;;;;;;5136809;27;20038;-66
2022/01/10 08:58:58;;;;;;;28.10;17.73;;;1.40;99.90;;;;;;5154221;27;20042;-64
2022/01/10 09:01:24;;;;;;;24.63;18.00;;;1.40;99.90;;;;;;5135549;27;20050;-64
2022/01/10 09:03:51;;;;;;;25.48;16.95;;;1.50;99.90;;;;;;5154529;27;20482;-64
2022/01/10 09:06:17;;;;;;;25.63;17.15;;;1.60;99.90;;;;;;5154653;27;20450;-64
2022/01/10 09:08:46;;;;;;;30.73;17.23;;;1.60;99.90;;;;;;5154516;27;20152;-66
2022/01/10 09:11:12;;;;;;;29.80;18.73;;;1.70;99.90;;;;;;5152081;27;20023;-65
2022/01/10 09:13:38;;;;;;;29.55;17.55;;;1.80;99.90;;;;;;5154992;27;20343;-66
2022/01/10 09:16:06;;;;;;;32.03;17.85;;;1.80;99.90;;;;;;5154047;27;20062;-66
2022/01/10 09:18:33;;;;;;;27.02;16.50;;;1.90;99.90;;;;;;5153943;27;20129;-66
2022/01/10 09:20:59;;;;;;;30.05;18.83;;;1.90;99.90;;;;;;5153336;27;20050;-65
2022/01/10 09:23:26;;;;;;;27.45;18.30;;;2.00;99.90;;;;;;5154267;27;20043;-64
2022/01/10 09:25:52;;;;;;;29.75;17.88;;;2.00;99.90;;;;;;5142227;27;20031;-66
2022/01/10 09:28:19;;;;;;;29.13;18.20;;;2.10;99.90;;;;;;5133278;28;20456;-64
2022/01/10 09:30:45;;;;;;;26.85;17.77;;;2.10;99.90;;;;;;5143769;27;20408;-65
2022/01/10 09:33:11;;;;;;;33.10;20.27;;;2.20;99.90;;;;;;5154472;27;20074;-65
2022/01/10 09:35:37;;;;;;;29.98;19.08;;;2.20;99.90;;;;;;5142039;27;20070;-65
2022/01/10 09:38:03;;;;;;;32.17;19.98;;;2.30;99.90;;;;;;5153937;27;20099;-64
2022/01/10 09:40:29;;;;;;;31.27;19.83;;;2.40;99.90;;;;;;5145386;27;20411;-64
2022/01/10 09:42:55;;;;;;;32.83;19.58;;;2.50;99.90;;;;;;5135791;27;20039;-64
2022/01/10 09:45:21;;;;;;;29.60;18.92;;;2.60;99.90;;;;;;5158637;27;20380;-65
2022/01/10 09:47:47;;;;;;;29.95;18.95;;;2.60;99.90;;;;;;5157824;27;20095;-65
2022/01/10 09:50:16;;;;;;;29.08;19.35;;;2.70;99.90;;;;;;5157185;27;20038;-65
2022/01/10 09:52:44;;;;;;;30.73;18.60;;;2.80;99.90;;;;;;5128363;27;20531;-64
2022/01/10 09:55:10;;;;;;;27.88;18.65;;;2.90;99.90;;;;;;5102253;27;20349;-64
2022/01/10 09:57:36;;;;;;;34.78;18.67;;;2.80;99.90;;;;;;5137301;27;20068;-65
2022/01/10 10:00:04;;;;;;;30.80;18.20;;;2.90;99.90;;;;;;5142179;27;20039;-65
2022/01/10 10:02:31;;;;;;;35.72;20.15;;;3.00;99.90;;;;;;5157830;27;20038;-65
2022/01/10 10:04:57;;;;;;;28.95;18.58;;;2.90;99.90;;;;;;5139508;27;20038;-65
2022/01/10 10:07:25;;;;;;;35.05;19.58;;;3.00;99.90;;;;;;5146216;27;20035;-64
2022/01/10 10:09:51;;;;;;;29.90;19.17;;;3.00;99.90;;;;;;5147118;27;20332;-64
2022/01/10 10:12:16;;;;;;;26.45;17.98;;;3.10;99.90;;;;;;5139920;27;20477;-64
2022/01/10 10:14:45;;;;;;;28.25;18.98;;;3.20;99.90;;;;;;5157243;27;20412;-66
2022/01/10 10:17:17;;;;;;;27.02;18.70;;;3.20;99.90;;;;;;5157270;27;20094;-64
2022/01/10 10:19:43;;;;;;;26.15;18.83;;;3.30;99.90;;;;;;5156756;27;20121;-66
2022/01/10 10:22:08;;;;;;;32.50;18.98;;;3.20;99.90;;;;;;5157888;27;20175;-65
2022/01/10 10:24:34;;;;;;;31.83;18.50;;;3.30;99.90;;;;;;5156281;27;20091;-65
2022/01/10 10:27:00;;;;;;;32.78;18.92;;;3.30;99.90;;;;;;5136647;27;20035;-65
2022/01/10 10:29:25;;;;;;;26.40;17.58;;;3.30;99.90;;;;;;5118843;27;20432;-65
2022/01/10 10:31:54;;;;;;;26.67;18.15;;;3.40;99.90;;;;;;5156625;27;20103;-65
2022/01/10 10:34:23;;;;;;;28.10;18.30;;;3.40;99.90;;;;;;5143937;27;20111;-65
2022/01/10 10:37:05;;;;;;;30.05;19.80;;;3.50;99.90;;;;;;5135869;27;20421;-65
2022/01/10 10:39:32;;;;;;;30.17;18.40;;;3.50;99.90;;;;;;5136378;27;20379;-65
2022/01/10 10:42:03;;;;;;;28.80;18.48;;;3.50;99.90;;;;;;5157167;27;20043;-66
2022/01/10 10:44:29;;;;;;;30.00;18.88;;;3.50;99.90;;;;;;5122360;27;20036;-65
2022/01/10 10:46:56;;;;;;;27.55;19.83;;;3.50;99.90;;;;;;5135655;27;20092;-65
2022/01/10 10:49:34;;;;;;;27.98;18.73;;;3.60;99.90;;;;;;5118295;27;20438;-65
2022/01/10 10:52:01;;;;;;;34.50;20.65;;;3.70;99.90;;;;;;5136051;27;20135;-65
2022/01/10 10:54:31;;;;;;;26.10;18.17;;;3.70;99.90;;;;;;5117583;27;20482;-64
2022/01/10 10:56:59;;;;;;;24.20;17.10;;;3.80;99.90;;;;;;5134748;27;20496;-65
2022/01/10 10:59:29;;;;;;;31.38;18.23;;;3.80;99.90;;;;;;5135986;27;20083;-66
2022/01/10 11:01:57;;;;;;;25.15;17.75;;;3.80;99.90;;;;;;5136576;27;20039;-65
2022/01/10 11:04:23;;;;;;;28.58;18.10;;;3.80;99.90;;;;;;5135608;27;20045;-65
2022/01/10 11:06:49;;;;;;;26.42;17.70;;;3.80;99.90;;;;;;5116839;27;20047;-64
2022/01/10 11:09:15;;;;;;;27.88;17.52;;;3.90;99.90;;;;;;5136168;27;20062;-65
2022/01/10 11:11:42;;;;;;;26.83;17.88;;;3.90;99.90;;;;;;5154293;27;20446;-65
2022/01/10 11:14:11;;;;;;;29.75;19.15;;;4.00;99.90;;;;;;5154734;27;20081;-64
2022/01/10 11:16:42;;;;;;;28.58;18.67;;;4.00;99.90;;;;;;5156860;27;20043;-65
2022/01/10 11:19:21;;;;;;;25.30;17.63;;;4.10;99.90;;;;;;5155946;27;20054;-65
2022/01/10 11:21:53;;;;;;;31.15;18.17;;;4.20;99.90;;;;;;5124586;27;20051;-66
2022/01/10 11:24:42;;;;;;;30.83;18.48;;;4.20;99.90;;;;;;5143966;27;20047;-65
2022/01/10 11:27:27;;;;;;;27.20;18.13;;;4.30;99.90;;;;;;5130216;27;20366;-66
2022/01/10 11:29:55;;;;;;;29.15;18.35;;;4.40;99.90;;;;;;5132772;27;20070;-66
2022/01/10 11:32:20;;;;;;;28.35;18.35;;;4.40;99.90;;;;;;5137200;27;20031;-66
2022/01/10 11:34:47;;;;;;;26.92;18.83;;;4.40;99.90;;;;;;5155629;27;20091;-66
2022/01/10 11:37:14;;;;;;;28.95;17.20;;;4.40;99.90;;;;;;5155552;27;20043;-65
2022/01/10 11:39:40;;;;;;;36.28;19.38;;;4.40;99.90;;;;;;5115956;27;20035;-66
2022/01/10 11:42:42;;;;;;;33.47;17.92;;;4.50;99.90;;;;;;5134898;27;20408;-65
2022/01/10 11:45:13;;;;;;;28.00;17.55;;;4.50;99.90;;;;;;5125942;27;20043;-66
2022/01/10 11:48:01;;;;;;;29.63;17.90;;;4.60;99.90;;;;;;5116656;27;20043;-66
2022/01/10 11:50:28;;;;;;;26.98;17.38;;;4.60;99.90;;;;;;5135684;27;20058;-66
2022/01/10 11:52:54;;;;;;;28.45;17.83;;;4.60;99.90;;;;;;5135012;27;20386;-67
2022/01/10 11:55:32;;;;;;;30.65;18.83;;;4.70;99.90;;;;;;5135311;27;20039;-65
2022/01/10 11:58:18;;;;;;;29.63;17.95;;;4.70;99.90;;;;;;5133645;27;20131;-65
2022/01/10 12:00:44;;;;;;;31.75;17.63;;;4.70;99.90;;;;;;5142048;27;20095;-67
2022/01/10 12:03:10;;;;;;;30.33;16.92;;;4.70;99.90;;;;;;5135400;27;20042;-67
2022/01/10 12:05:36;;;;;;;29.55;17.83;;;4.70;99.90;;;;;;5153393;27;20069;-66
2022/01/10 12:08:05;;;;;;;28.95;17.30;;;4.80;99.90;;;;;;5153511;27;20459;-65
2022/01/10 12:10:31;;;;;;;34.97;18.98;;;4.80;99.90;;;;;;5152186;27;20042;-65
2022/01/10 12:13:06;;;;;;;31.58;18.77;;;4.90;99.90;;;;;;5153234;27;20081;-65
2022/01/10 12:15:33;;;;;;;32.90;19.73;;;4.90;99.90;;;;;;5155530;27;20054;-64
2022/01/10 12:17:59;;;;;;;29.08;17.17;;;4.90;99.90;;;;;;5136883;27;20077;-67
2022/01/10 12:20:24;;;;;;;36.30;18.88;;;4.90;99.90;;;;;;5136182;27;20505;-65
2022/01/10 12:22:54;;;;;;;29.15;18.15;;;4.90;99.90;;;;;;5155756;27;20358;-64
2022/01/10 12:25:21;;;;;;;27.98;17.92;;;5.00;99.90;;;;;;5154981;27;20405;-65
2022/01/10 12:27:48;;;;;;;30.10;18.27;;;5.00;99.90;;;;;;5151963;27;20114;-68
2022/01/10 12:30:18;;;;;;;28.70;18.70;;;5.00;99.90;;;;;;5153735;27;20062;-65
2022/01/10 12:32:45;;;;;;;25.98;16.67;;;5.00;99.90;;;;;;5134328;27;20048;-65
2022/01/10 12:35:11;;;;;;;27.58;17.58;;;5.00;99.90;;;;;;5134633;27;20039;-65
2022/01/10 12:37:37;;;;;;;26.15;18.75;;;5.10;99.90;;;;;;5134236;27;20054;-66
2022/01/10 12:40:07;;;;;;;28.50;17.58;;;5.10;99.90;;;;;;5137690;27;20339;-62
2022/01/10 12:42:33;;;;;;;30.52;17.98;;;5.10;99.90;;;;;;5155425;27;20354;-65
2022/01/10 12:44:58;;;;;;;30.08;17.80;;;5.20;99.90;;;;;;5134412;27;20039;-65
2022/01/10 12:47:25;;;;;;;26.48;18.67;;;5.20;99.90;;;;;;5133867;27;20030;-66
2022/01/10 12:49:51;;;;;;;28.92;18.45;;;5.20;99.90;;;;;;5135876;27;20035;-65